sensor_id;sensor_type;location;lat;lon;timestamp;pressure;altitude;pressure_sealevel;temperature;humidity
61757;BME280;57225;61.460;24.060;2024-03-08T00:00:34;101111.38;;;-5.29;100.00
61757;BME280;57225;61.460;24.060;2024-03-08T00:03:18;101118.44;;;-5.28;100.00
61757;BME280;57225;61.460;24.060;2024-03-08T00:06:03;101109.47;;;-5.23;100.00
61757;BME280;57225;61.460;24.060;2024-03-08T00:08:48;101111.09;;;-5.17;100.00
61757;BME280;57225;61.460;24.060;2024-03-08T00:11:34;101119.22;;;-5.17;100.00
61757;BME280;57225;61.460;24.060;2024-03-08T00:14:19;101110.56;;;-5.19;100.00
61757;BME280;57225;61.460;24.060;2024-03-08T00:17:04;101115.41;;;-5.11;100.00
61757;BME280;57225;61.460;24.060;2024-03-08T00:19:49;101113.53;;;-5.16;100.00
61757;BME280;57225;61.460;24.060;2024-03-08T00:22:34;101107.81;;;-5.24;100.00
61757;BME280;57225;61.460;24.060;2024-03-08T00:25:20;101096.69;;;-5.23;100.00
61757;BME280;57225;61.460;24.060;2024-03-08T00:28:04;101096.72;;;-5.33;100.00
61757;BME280;57225;61.460;24.060;2024-03-08T00:30:50;101103.47;;;-5.31;100.00
61757;BME280;57225;61.460;24.060;2024-03-08T00:33:34;101097.28;;;-5.31;100.00
61757;BME280;57225;61.460;24.060;2024-03-08T00:36:18;101095.88;;;-5.29;100.00
61757;BME280;57225;61.460;24.060;2024-03-08T00:39:04;101103.78;;;-5.27;100.00
61757;BME280;57225;61.460;24.060;2024-03-08T00:41:50;101106.22;;;-5.20;100.00
61757;BME280;57225;61.460;24.060;2024-03-08T00:44:35;101094.25;;;-5.24;100.00
61757;BME280;57225;61.460;24.060;2024-03-08T00:47:19;101095.34;;;-5.36;100.00
61757;BME280;57225;61.460;24.060;2024-03-08T00:50:04;101068.75;;;-5.39;100.00
61757;BME280;57225;61.460;24.060;2024-03-08T00:52:48;101097.50;;;-5.12;100.00
61757;BME280;57225;61.460;24.060;2024-03-08T00:55:33;101092.06;;;-5.12;100.00
61757;BME280;57225;61.460;24.060;2024-03-08T00:58:18;101089.88;;;-5.10;100.00
61757;BME280;57225;61.460;24.060;2024-03-08T01:01:04;101096.69;;;-5.13;100.00
61757;BME280;57225;61.460;24.060;2024-03-08T01:03:48;101097.50;;;-5.17;100.00
61757;BME280;57225;61.460;24.060;2024-03-08T01:06:33;101092.63;;;-5.20;100.00
61757;BME280;57225;61.460;24.060;2024-03-08T01:09:18;101086.63;;;-5.22;100.00
61757;BME280;57225;61.460;24.060;2024-03-08T01:12:02;101082.03;;;-5.27;100.00
61757;BME280;57225;61.460;24.060;2024-03-08T01:14:47;101093.44;;;-5.15;100.00
61757;BME280;57225;61.460;24.060;2024-03-08T01:17:32;101090.47;;;-5.18;100.00
61757;BME280;57225;61.460;24.060;2024-03-08T01:20:16;101090.97;;;-5.11;100.00
61757;BME280;57225;61.460;24.060;2024-03-08T01:23:02;101089.06;;;-5.16;100.00
61757;BME280;57225;61.460;24.060;2024-03-08T01:25:47;101095.88;;;-5.18;100.00
61757;BME280;57225;61.460;24.060;2024-03-08T01:28:40;101087.75;;;-5.34;100.00
61757;BME280;57225;61.460;24.060;2024-03-08T01:31:25;101089.13;;;-5.41;100.00
61757;BME280;57225;61.460;24.060;2024-03-08T01:34:10;101102.16;;;-5.48;100.00
61757;BME280;57225;61.460;24.060;2024-03-08T01:36:54;101094.28;;;-5.55;100.00
61757;BME280;57225;61.460;24.060;2024-03-08T01:39:42;101097.00;;;-5.55;100.00
61757;BME280;57225;61.460;24.060;2024-03-08T01:42:26;101103.25;;;-5.54;100.00
61757;BME280;57225;61.460;24.060;2024-03-08T01:45:11;101093.47;;;-5.55;100.00
61757;BME280;57225;61.460;24.060;2024-03-08T01:47:55;101101.34;;;-5.59;100.00
61757;BME280;57225;61.460;24.060;2024-03-08T01:50:40;101092.63;;;-5.56;100.00
61757;BME280;57225;61.460;24.060;2024-03-08T01:53:24;101092.63;;;-5.56;100.00
61757;BME280;57225;61.460;24.060;2024-03-08T01:56:10;101094.56;;;-5.56;100.00
61757;BME280;57225;61.460;24.060;2024-03-08T01:58:58;101092.13;;;-5.53;100.00
61757;BME280;57225;61.460;24.060;2024-03-08T02:22:13;101083.41;;;-5.50;100.00
61757;BME280;57225;61.460;24.060;2024-03-08T02:24:58;101089.94;;;-5.46;100.00
61757;BME280;57225;61.460;24.060;2024-03-08T02:27:45;101090.47;;;-5.39;100.00
61757;BME280;57225;61.460;24.060;2024-03-08T02:30:30;101079.59;;;-5.34;100.00
61757;BME280;57225;61.460;24.060;2024-03-08T02:33:15;101092.13;;;-5.38;100.00
61757;BME280;57225;61.460;24.060;2024-03-08T02:36:02;101101.63;;;-5.45;100.00
61757;BME280;57225;61.460;24.060;2024-03-08T02:38:47;101095.91;;;-5.54;100.00
61757;BME280;57225;61.460;24.060;2024-03-08T02:41:31;101089.66;;;-5.59;100.00
61757;BME280;57225;61.460;24.060;2024-03-08T02:44:19;101094.84;;;-5.63;100.00
61757;BME280;57225;61.460;24.060;2024-03-08T02:47:05;101103.50;;;-5.56;100.00
61757;BME280;57225;61.460;24.060;2024-03-08T02:49:50;101087.22;;;-5.61;100.00
61757;BME280;57225;61.460;24.060;2024-03-08T02:52:36;101098.63;;;-5.54;100.00
61757;BME280;57225;61.460;24.060;2024-03-08T02:55:20;101084.75;;;-5.62;100.00
61757;BME280;57225;61.460;24.060;2024-03-08T02:58:05;101112.47;;;-5.55;100.00
61757;BME280;57225;61.460;24.060;2024-03-08T03:00:49;101105.97;;;-5.59;100.00
61757;BME280;57225;61.460;24.060;2024-03-08T03:03:33;101105.16;;;-5.65;100.00
61757;BME280;57225;61.460;24.060;2024-03-08T03:06:18;101104.88;;;-5.48;100.00
61757;BME280;57225;61.460;24.060;2024-03-08T03:09:04;101112.75;;;-5.52;100.00
61757;BME280;57225;61.460;24.060;2024-03-08T03:11:50;101115.72;;;-5.43;100.00
61757;BME280;57225;61.460;24.060;2024-03-08T03:14:37;101103.78;;;-5.42;100.00
61757;BME280;57225;61.460;24.060;2024-03-08T03:17:25;101098.91;;;-5.50;100.00
61757;BME280;57225;61.460;24.060;2024-03-08T03:20:09;101116.25;;;-5.36;100.00
61757;BME280;57225;61.460;24.060;2024-03-08T03:22:57;101117.09;;;-5.25;100.00
61757;BME280;57225;61.460;24.060;2024-03-08T03:25:41;101122.53;;;-5.25;100.00
61757;BME280;57225;61.460;24.060;2024-03-08T03:28:26;101132.00;;;-5.23;100.00
61757;BME280;57225;61.460;24.060;2024-03-08T03:31:12;101126.31;;;-5.37;100.00
61757;BME280;57225;61.460;24.060;2024-03-08T03:33:58;101126.88;;;-5.40;100.00
61757;BME280;57225;61.460;24.060;2024-03-08T03:36:46;101136.38;;;-5.37;100.00
61757;BME280;57225;61.460;24.060;2024-03-08T03:39:33;101127.97;;;-5.46;100.00
61757;BME280;57225;61.460;24.060;2024-03-08T03:42:32;101130.13;;;-5.33;100.00
61757;BME280;57225;61.460;24.060;2024-03-08T03:45:18;101138.81;;;-5.25;100.00
61757;BME280;57225;61.460;24.060;2024-03-08T03:48:05;101134.22;;;-5.25;100.00
61757;BME280;57225;61.460;24.060;2024-03-08T03:50:56;101136.63;;;-5.29;100.00
61757;BME280;57225;61.460;24.060;2024-03-08T03:53:40;101122.81;;;-5.32;100.00
61757;BME280;57225;61.460;24.060;2024-03-08T03:56:26;101120.38;;;-5.44;100.00
61757;BME280;57225;61.460;24.060;2024-03-08T03:59:11;101135.28;;;-5.51;100.00
61757;BME280;57225;61.460;24.060;2024-03-08T04:01:56;101135.56;;;-5.38;100.00
61757;BME280;57225;61.460;24.060;2024-03-08T04:04:40;101137.19;;;-5.32;100.00
61757;BME280;57225;61.460;24.060;2024-03-08T04:07:25;101136.13;;;-5.46;100.00
61757;BME280;57225;61.460;24.060;2024-03-08T04:10:11;101131.75;;;-5.47;100.00
61757;BME280;57225;61.460;24.060;2024-03-08T04:12:55;101132.28;;;-5.50;100.00
61757;BME280;57225;61.460;24.060;2024-03-08T04:15:41;101133.94;;;-5.39;100.00
61757;BME280;57225;61.460;24.060;2024-03-08T04:18:28;101134.75;;;-5.38;100.00
61757;BME280;57225;61.460;24.060;2024-03-08T04:21:12;101127.69;;;-5.39;100.00
61757;BME280;57225;61.460;24.060;2024-03-08T04:23:57;101132.56;;;-5.36;100.00
61757;BME280;57225;61.460;24.060;2024-03-08T04:26:50;101127.16;;;-5.31;100.00
61757;BME280;57225;61.460;24.060;2024-03-08T04:29:36;101117.06;;;-5.36;100.00
61757;BME280;57225;61.460;24.060;2024-03-08T04:32:20;101120.88;;;-5.27;100.00
61757;BME280;57225;61.460;24.060;2024-03-08T04:35:07;101121.97;;;-5.43;100.00
61757;BME280;57225;61.460;24.060;2024-03-08T04:37:52;101124.16;;;-5.45;100.00
61757;BME280;57225;61.460;24.060;2024-03-08T04:40:36;101135.56;;;-5.38;100.00
61757;BME280;57225;61.460;24.060;2024-03-08T04:43:20;101127.69;;;-5.39;100.00
61757;BME280;57225;61.460;24.060;2024-03-08T04:46:05;101126.06;;;-5.40;100.00
61757;BME280;57225;61.460;24.060;2024-03-08T04:48:50;101136.13;;;-5.46;100.00
61757;BME280;57225;61.460;24.060;2024-03-08T04:51:34;101111.66;;;-5.66;100.00
61757;BME280;57225;61.460;24.060;2024-03-08T04:54:19;101132.28;;;-5.55;100.00
61757;BME280;57225;61.460;24.060;2024-03-08T04:57:03;101126.34;;;-5.57;100.00
61757;BME280;57225;61.460;24.060;2024-03-08T04:59:48;101131.22;;;-5.49;100.00
61757;BME280;57225;61.460;24.060;2024-03-08T05:02:33;101122.25;;;-5.54;100.00
61757;BME280;57225;61.460;24.060;2024-03-08T05:05:17;101124.44;;;-5.51;100.00
61757;BME280;57225;61.460;24.060;2024-03-08T05:08:02;101128.78;;;-5.50;100.00
61757;BME280;57225;61.460;24.060;2024-03-08T05:10:47;101128.50;;;-5.39;100.00
61757;BME280;57225;61.460;24.060;2024-03-08T05:13:31;101121.44;;;-5.50;100.00
61757;BME280;57225;61.460;24.060;2024-03-08T05:16:16;101131.22;;;-5.49;100.00
61757;BME280;57225;61.460;24.060;2024-03-08T05:19:04;101133.41;;;-5.51;100.00
61757;BME280;57225;61.460;24.060;2024-03-08T05:21:49;101122.50;;;-5.56;100.00
61757;BME280;57225;61.460;24.060;2024-03-08T05:24:34;101131.50;;;-5.50;100.00
61757;BME280;57225;61.460;24.060;2024-03-08T05:27:19;101128.78;;;-5.45;100.00
61757;BME280;57225;61.460;24.060;2024-03-08T05:30:04;101132.03;;;-5.38;100.00
61757;BME280;57225;61.460;24.060;2024-03-08T05:32:49;101145.88;;;-5.35;100.00
61757;BME280;57225;61.460;24.060;2024-03-08T05:35:33;101143.97;;;-5.49;100.00
61757;BME280;57225;61.460;24.060;2024-03-08T05:38:18;101147.50;;;-5.54;100.00
61757;BME280;57225;61.460;24.060;2024-03-08T05:41:04;101151.84;;;-5.53;100.00
61757;BME280;57225;61.460;24.060;2024-03-08T05:43:48;101150.22;;;-5.49;100.00
61757;BME280;57225;61.460;24.060;2024-03-08T05:46:34;101139.91;;;-5.52;100.00
61757;BME280;57225;61.460;24.060;2024-03-08T05:49:19;101155.13;;;-5.36;100.00
61757;BME280;57225;61.460;24.060;2024-03-08T05:52:05;101142.06;;;-5.29;100.00
61757;BME280;57225;61.460;24.060;2024-03-08T05:54:49;101155.41;;;-5.32;100.00
61757;BME280;57225;61.460;24.060;2024-03-08T05:57:34;101133.38;;;-5.36;100.00
61757;BME280;57225;61.460;24.060;2024-03-08T06:00:21;101153.75;;;-5.23;100.00
61757;BME280;57225;61.460;24.060;2024-03-08T06:03:07;101154.84;;;-5.19;100.00
61757;BME280;57225;61.460;24.060;2024-03-08T06:05:51;101151.31;;;-5.14;100.00
61757;BME280;57225;61.460;24.060;2024-03-08T06:08:36;101156.47;;;-5.28;100.00
61757;BME280;57225;61.460;24.060;2024-03-08T06:11:21;101155.13;;;-5.25;100.00
61757;BME280;57225;61.460;24.060;2024-03-08T06:14:05;101157.84;;;-5.20;100.00
61757;BME280;57225;61.460;24.060;2024-03-08T06:16:50;101166.81;;;-5.25;100.00
61757;BME280;57225;61.460;24.060;2024-03-08T06:19:34;101173.59;;;-5.33;100.00
61757;BME280;57225;61.460;24.060;2024-03-08T06:22:20;101173.59;;;-5.38;100.00
61757;BME280;57225;61.460;24.060;2024-03-08T06:25:06;101171.16;;;-5.44;100.00
61757;BME280;57225;61.460;24.060;2024-03-08T06:27:51;101164.88;;;-5.50;100.00
61757;BME280;57225;61.460;24.060;2024-03-08T06:30:36;101181.72;;;-5.63;100.00
61757;BME280;57225;61.460;24.060;2024-03-08T06:33:21;101185.81;;;-5.45;100.00
61757;BME280;57225;61.460;24.060;2024-03-08T06:36:06;101182.28;;;-5.46;100.00
61757;BME280;57225;61.460;24.060;2024-03-08T06:38:50;101184.72;;;-5.54;100.00
61757;BME280;57225;61.460;24.060;2024-03-08T06:41:38;101187.72;;;-5.51;100.00
61757;BME280;57225;61.460;24.060;2024-03-08T06:44:22;101194.22;;;-5.42;100.00
61757;BME280;57225;61.460;24.060;2024-03-08T06:47:07;101183.91;;;-5.35;100.00
61757;BME280;57225;61.460;24.060;2024-03-08T06:49:51;101192.59;;;-5.28;100.00
61757;BME280;57225;61.460;24.060;2024-03-08T06:52:36;101194.25;;;-5.21;100.00
61757;BME280;57225;61.460;24.060;2024-03-08T06:55:21;101190.16;;;-5.14;100.00
61757;BME280;57225;61.460;24.060;2024-03-08T06:58:06;101201.31;;;-5.00;100.00
61757;BME280;57225;61.460;24.060;2024-03-08T07:00:54;101190.97;;;-5.13;100.00
61757;BME280;57225;61.460;24.060;2024-03-08T07:03:42;101208.38;;;-5.14;100.00
61757;BME280;57225;61.460;24.060;2024-03-08T07:06:27;101198.03;;;-5.07;100.00
61757;BME280;57225;61.460;24.060;2024-03-08T07:09:13;101199.09;;;-4.98;100.00
61757;BME280;57225;61.460;24.060;2024-03-08T07:11:57;101208.91;;;-4.97;100.00
61757;BME280;57225;61.460;24.060;2024-03-08T07:14:42;101208.91;;;-4.87;100.00
61757;BME280;57225;61.460;24.060;2024-03-08T07:17:29;101212.69;;;-4.78;100.00
61757;BME280;57225;61.460;24.060;2024-03-08T07:20:14;101202.06;;;-4.79;100.00
61757;BME280;57225;61.460;24.060;2024-03-08T07:23:02;101201.78;;;-4.73;100.00
61757;BME280;57225;61.460;24.060;2024-03-08T07:25:48;101215.38;;;-4.68;100.00
61757;BME280;57225;61.460;24.060;2024-03-08T07:28:33;101207.78;;;-4.86;100.00
61757;BME280;57225;61.460;24.060;2024-03-08T07:31:17;101207.25;;;-4.93;100.00
61757;BME280;57225;61.460;24.060;2024-03-08T07:34:11;101212.97;;;-4.74;100.00
61757;BME280;57225;61.460;24.060;2024-03-08T07:36:55;101189.88;;;-4.82;100.00
61757;BME280;57225;61.460;24.060;2024-03-08T07:39:40;101201.25;;;-4.65;100.00
61757;BME280;57225;61.460;24.060;2024-03-08T07:42:25;101202.91;;;-4.69;100.00
61757;BME280;57225;61.460;24.060;2024-03-08T07:45:09;101191.75;;;-4.77;100.00
61757;BME280;57225;61.460;24.060;2024-03-08T07:47:54;101206.41;;;-4.73;100.00
61757;BME280;57225;61.460;24.060;2024-03-08T07:50:40;101211.28;;;-4.55;100.00
61757;BME280;57225;61.460;24.060;2024-03-08T07:53:25;101209.94;;;-4.63;100.00
61757;BME280;57225;61.460;24.060;2024-03-08T07:56:10;101206.66;;;-4.60;100.00
61757;BME280;57225;61.460;24.060;2024-03-08T07:58:57;101209.13;;;-4.58;100.00
61757;BME280;57225;61.460;24.060;2024-03-08T08:01:41;101203.94;;;-4.55;100.00
61757;BME280;57225;61.460;24.060;2024-03-08T08:04:26;101205.81;;;-4.45;100.00
61757;BME280;57225;61.460;24.060;2024-03-08T08:07:11;101202.75;;;-4.28;100.00
61757;BME280;57225;61.460;24.060;2024-03-08T08:09:56;101204.38;;;-4.22;100.00
61757;BME280;57225;61.460;24.060;2024-03-08T08:12:40;101196.22;;;-4.22;100.00
61757;BME280;57225;61.460;24.060;2024-03-08T08:15:25;101203.88;;;-4.34;100.00
61757;BME280;57225;61.460;24.060;2024-03-08T08:18:12;101205.03;;;-4.56;100.00
61757;BME280;57225;61.460;24.060;2024-03-08T08:20:57;101209.34;;;-4.44;100.00
61757;BME280;57225;61.460;24.060;2024-03-08T08:23:42;101210.97;;;-4.38;100.00
61757;BME280;57225;61.460;24.060;2024-03-08T08:26:36;101198.94;;;-4.27;100.00
61757;BME280;57225;61.460;24.060;2024-03-08T08:29:32;101204.34;;;-4.17;100.00
61757;BME280;57225;61.460;24.060;2024-03-08T08:32:17;101216.31;;;-4.13;100.00
61757;BME280;57225;61.460;24.060;2024-03-08T08:35:03;101213.31;;;-4.07;100.00
61757;BME280;57225;61.460;24.060;2024-03-08T08:37:48;101206.47;;;-3.99;100.00
61757;BME280;57225;61.460;24.060;2024-03-08T08:40:34;101213.22;;;-3.91;100.00
61757;BME280;57225;61.460;24.060;2024-03-08T08:43:19;101206.09;;;-3.82;100.00
61757;BME280;57225;61.460;24.060;2024-03-08T08:46:08;101212.56;;;-3.68;100.00
61757;BME280;57225;61.460;24.060;2024-03-08T08:48:52;101208.16;;;-3.64;100.00
61757;BME280;57225;61.460;24.060;2024-03-08T08:51:37;101180.78;;;-3.83;100.00
61757;BME280;57225;61.460;24.060;2024-03-08T08:54:21;101205.69;;;-3.55;100.00
61757;BME280;57225;61.460;24.060;2024-03-08T08:57:06;101209.53;;;-3.61;100.00
61757;BME280;57225;61.460;24.060;2024-03-08T08:59:52;101212.81;;;-3.65;100.00
61757;BME280;57225;61.460;24.060;2024-03-08T09:02:37;101197.78;;;-3.57;100.00
61757;BME280;57225;61.460;24.060;2024-03-08T09:05:21;101206.19;;;-3.48;100.00
61757;BME280;57225;61.460;24.060;2024-03-08T09:08:08;101213.19;;;-3.37;100.00
61757;BME280;57225;61.460;24.060;2024-03-08T09:10:52;101225.81;;;-3.12;100.00
61757;BME280;57225;61.460;24.060;2024-03-08T09:13:37;101221.78;;;-2.86;100.00
61757;BME280;57225;61.460;24.060;2024-03-08T09:16:22;101222.97;;;-2.97;100.00
61757;BME280;57225;61.460;24.060;2024-03-08T09:19:07;101209.41;;;-3.07;100.00
61757;BME280;57225;61.460;24.060;2024-03-08T09:21:51;101231.03;;;-3.21;100.00
61757;BME280;57225;61.460;24.060;2024-03-08T09:24:35;101233.31;;;-3.33;100.00
61757;BME280;57225;61.460;24.060;2024-03-08T09:27:20;101225.00;;;-3.13;100.00
61757;BME280;57225;61.460;24.060;2024-03-08T09:30:05;101231.50;;;-3.09;100.00
61757;BME280;57225;61.460;24.060;2024-03-08T09:32:50;101230.75;;;-3.19;100.00
61757;BME280;57225;61.460;24.060;2024-03-08T09:35:35;101229.94;;;-3.20;100.00
61757;BME280;57225;61.460;24.060;2024-03-08T09:38:21;101227.22;;;-3.20;100.00
61757;BME280;57225;61.460;24.060;2024-03-08T09:41:06;101229.63;;;-3.13;100.00
61757;BME280;57225;61.460;24.060;2024-03-08T09:43:53;101229.06;;;-3.10;100.00
61757;BME280;57225;61.460;24.060;2024-03-08T09:46:40;101221.13;;;-3.07;100.00
61757;BME280;57225;61.460;24.060;2024-03-08T09:49:25;101213.44;;;-3.00;100.00
61757;BME280;57225;61.460;24.060;2024-03-08T09:52:09;101202.13;;;-3.17;100.00
61757;BME280;57225;61.460;24.060;2024-03-08T09:54:56;101221.22;;;-3.17;100.00
61757;BME280;57225;61.460;24.060;2024-03-08T09:57:42;101219.94;;;-2.96;100.00
61757;BME280;57225;61.460;24.060;2024-03-08T10:00:47;101203.97;;;-2.78;100.00
61757;BME280;57225;61.460;24.060;2024-03-08T10:03:32;101209.75;;;-2.56;100.00
61757;BME280;57225;61.460;24.060;2024-03-08T10:06:22;101216.78;;;-2.26;100.00
61757;BME280;57225;61.460;24.060;2024-03-08T10:09:08;101217.03;;;-2.23;100.00
61757;BME280;57225;61.460;24.060;2024-03-08T10:11:57;101212.03;;;-2.16;100.00
61757;BME280;57225;61.460;24.060;2024-03-08T10:14:42;101198.41;;;-2.21;100.00
61757;BME280;57225;61.460;24.060;2024-03-08T10:17:26;101201.75;;;-2.24;100.00
61757;BME280;57225;61.460;24.060;2024-03-08T10:20:16;101199.25;;;-2.44;100.00
61757;BME280;57225;61.460;24.060;2024-03-08T10:23:02;101222.41;;;-2.18;100.00
61757;BME280;57225;61.460;24.060;2024-03-08T10:25:48;101204.69;;;-1.96;100.00
61757;BME280;57225;61.460;24.060;2024-03-08T10:28:33;101213.75;;;-2.25;100.00
61757;BME280;57225;61.460;24.060;2024-03-08T10:31:18;101212.25;;;-2.12;100.00
61757;BME280;57225;61.460;24.060;2024-03-08T10:34:03;101216.00;;;-1.84;100.00
61757;BME280;57225;61.460;24.060;2024-03-08T10:36:52;101207.91;;;-1.94;100.00
61757;BME280;57225;61.460;24.060;2024-03-08T10:39:37;101209.38;;;-1.78;100.00
61757;BME280;57225;61.460;24.060;2024-03-08T10:42:27;101213.06;;;-2.12;100.00
61757;BME280;57225;61.460;24.060;2024-03-08T10:48:29;101216.50;;;-2.25;100.00
61757;BME280;57225;61.460;24.060;2024-03-08T10:51:16;101220.38;;;-2.31;100.00
61757;BME280;57225;61.460;24.060;2024-03-08T10:54:03;101215.50;;;-2.34;100.00
61757;BME280;57225;61.460;24.060;2024-03-08T10:56:51;101204.69;;;-2.44;100.00
61757;BME280;57225;61.460;24.060;2024-03-08T10:59:35;101226.59;;;-2.49;100.00
61757;BME280;57225;61.460;24.060;2024-03-08T11:02:20;101227.34;;;-2.20;100.00
61757;BME280;57225;61.460;24.060;2024-03-08T11:05:04;101224.22;;;-2.08;100.00
61757;BME280;57225;61.460;24.060;2024-03-08T11:07:50;101222.13;;;-1.92;100.00
61757;BME280;57225;61.460;24.060;2024-03-08T11:10:49;101223.78;;;-1.73;100.00
61757;BME280;57225;61.460;24.060;2024-03-08T11:13:42;101218.31;;;-1.54;100.00
61757;BME280;57225;61.460;24.060;2024-03-08T11:22:06;101216.66;;;-1.17;100.00
61757;BME280;57225;61.460;24.060;2024-03-08T11:24:52;101219.88;;;-0.97;100.00
61757;BME280;57225;61.460;24.060;2024-03-08T11:27:37;101225.47;;;-0.88;100.00
61757;BME280;57225;61.460;24.060;2024-03-08T11:30:22;101215.91;;;-1.04;100.00
61757;BME280;57225;61.460;24.060;2024-03-08T11:33:11;101218.97;;;-0.92;100.00
61757;BME280;57225;61.460;24.060;2024-03-08T11:36:11;101212.75;;;-0.79;100.00
61757;BME280;57225;61.460;24.060;2024-03-08T11:39:01;101210.44;;;-1.04;100.00
61757;BME280;57225;61.460;24.060;2024-03-08T11:41:53;101197.38;;;-1.26;100.00
61757;BME280;57225;61.460;24.060;2024-03-08T11:44:38;101194.66;;;-1.45;100.00
61757;BME280;57225;61.460;24.060;2024-03-08T11:47:22;101205.91;;;-1.46;100.00
61757;BME280;57225;61.460;24.060;2024-03-08T11:50:07;101210.91;;;-1.35;100.00
61757;BME280;57225;61.460;24.060;2024-03-08T11:53:01;101211.38;;;-1.28;100.00
61757;BME280;57225;61.460;24.060;2024-03-08T11:55:47;101194.66;;;-1.45;100.00
61757;BME280;57225;61.460;24.060;2024-03-08T11:58:33;101190.69;;;-1.34;100.00
61757;BME280;57225;61.460;24.060;2024-03-08T12:01:37;101208.00;;;-1.06;100.00
61757;BME280;57225;61.460;24.060;2024-03-08T12:04:31;101202.31;;;-1.09;100.00
61757;BME280;57225;61.460;24.060;2024-03-08T12:07:19;101195.31;;;-0.83;100.00
61757;BME280;57225;61.460;24.060;2024-03-08T12:10:20;101203.44;;;-0.78;100.00
61757;BME280;57225;61.460;24.060;2024-03-08T12:13:07;101194.41;;;-0.78;100.00
61757;BME280;57225;61.460;24.060;2024-03-08T12:16:03;101180.00;;;-0.84;100.00
61757;BME280;57225;61.460;24.060;2024-03-08T12:18:51;101205.47;;;-0.56;100.00
61757;BME280;57225;61.460;24.060;2024-03-08T12:21:36;101206.28;;;-0.56;100.00
61757;BME280;57225;61.460;24.060;2024-03-08T12:24:21;101207.75;;;-0.45;100.00
61757;BME280;57225;61.460;24.060;2024-03-08T12:27:27;101204.81;;;-0.34;100.00
61757;BME280;57225;61.460;24.060;2024-03-08T12:30:23;101186.22;;;-0.65;100.00
61757;BME280;57225;61.460;24.060;2024-03-08T12:33:10;101192.31;;;-0.54;100.00
61757;BME280;57225;61.460;24.060;2024-03-08T12:35:57;101198.38;;;-0.71;100.00
61757;BME280;57225;61.460;24.060;2024-03-08T12:38:44;101210.13;;;-0.57;100.00
61757;BME280;57225;61.460;24.060;2024-03-08T12:41:38;101205.69;;;-0.53;100.00
61757;BME280;57225;61.460;24.060;2024-03-08T12:44:23;101209.44;;;-0.49;100.00
61757;BME280;57225;61.460;24.060;2024-03-08T12:47:09;101211.28;;;-0.58;100.00
61757;BME280;57225;61.460;24.060;2024-03-08T12:49:53;101197.03;;;-0.73;100.00
61757;BME280;57225;61.460;24.060;2024-03-08T12:52:38;101206.25;;;-0.69;100.00
61757;BME280;57225;61.460;24.060;2024-03-08T12:55:22;101209.03;;;-0.56;100.00
61757;BME280;57225;61.460;24.060;2024-03-08T12:58:07;101209.97;;;-0.47;100.00
61757;BME280;57225;61.460;24.060;2024-03-08T13:00:52;101217.69;;;-0.35;100.00
61757;BME280;57225;61.460;24.060;2024-03-08T13:03:36;101220.84;;;-0.28;100.00
61757;BME280;57225;61.460;24.060;2024-03-08T13:06:21;101216.16;;;-0.27;99.28
61757;BME280;57225;61.460;24.060;2024-03-08T13:09:08;101211.81;;;-0.28;99.95
61757;BME280;57225;61.460;24.060;2024-03-08T13:11:53;101222.06;;;-0.20;100.00
61757;BME280;57225;61.460;24.060;2024-03-08T13:14:40;101199.53;;;-0.17;100.00
61757;BME280;57225;61.460;24.060;2024-03-08T13:17:25;101209.47;;;0.06;99.84
61757;BME280;57225;61.460;24.060;2024-03-08T13:20:09;101202.47;;;0.00;97.47
61757;BME280;57225;61.460;24.060;2024-03-08T13:23:00;101210.06;;;-0.11;97.65
61757;BME280;57225;61.460;24.060;2024-03-08T13:25:46;101214.16;;;-0.22;99.19
61757;BME280;57225;61.460;24.060;2024-03-08T13:28:33;101209.78;;;-0.09;99.84
61757;BME280;57225;61.460;24.060;2024-03-08T13:31:21;101213.31;;;0.05;100.00
61757;BME280;57225;61.460;24.060;2024-03-08T13:34:05;101212.69;;;0.08;98.85
61757;BME280;57225;61.460;24.060;2024-03-08T13:36:49;101215.97;;;0.10;97.77
61757;BME280;57225;61.460;24.060;2024-03-08T13:39:36;101203.66;;;0.21;98.12
61757;BME280;57225;61.460;24.060;2024-03-08T13:42:24;101214.19;;;0.28;97.28
61757;BME280;57225;61.460;24.060;2024-03-08T13:45:09;101215.72;;;0.34;96.23
61757;BME280;57225;61.460;24.060;2024-03-08T13:47:59;101182.13;;;0.15;95.31
61757;BME280;57225;61.460;24.060;2024-03-08T13:50:43;101208.69;;;0.42;95.96
61757;BME280;57225;61.460;24.060;2024-03-08T13:53:28;101194.41;;;0.67;95.08
61757;BME280;57225;61.460;24.060;2024-03-08T13:56:12;101198.09;;;0.85;93.13
61757;BME280;57225;61.460;24.060;2024-03-08T13:58:59;101196.22;;;0.94;91.20
61757;BME280;57225;61.460;24.060;2024-03-08T14:01:43;101189.25;;;0.88;91.17
61757;BME280;57225;61.460;24.060;2024-03-08T14:04:28;101183.59;;;0.70;91.34
61757;BME280;57225;61.460;24.060;2024-03-08T14:07:12;101168.06;;;0.44;91.79
61757;BME280;57225;61.460;24.060;2024-03-08T14:09:57;101176.78;;;0.46;93.44
61757;BME280;57225;61.460;24.060;2024-03-08T14:12:41;101181.28;;;0.42;92.60
61757;BME280;57225;61.460;24.060;2024-03-08T14:15:27;101157.34;;;0.20;93.28
61757;BME280;57225;61.460;24.060;2024-03-08T14:18:11;101180.50;;;0.27;92.94
61757;BME280;57225;61.460;24.060;2024-03-08T14:20:57;101182.41;;;0.27;93.51
61757;BME280;57225;61.460;24.060;2024-03-08T14:23:42;101183.44;;;0.31;93.78
61757;BME280;57225;61.460;24.060;2024-03-08T14:26:36;101174.59;;;0.34;93.56
61757;BME280;57225;61.460;24.060;2024-03-08T14:29:22;101175.41;;;0.34;92.74
61757;BME280;57225;61.460;24.060;2024-03-08T14:32:08;101161.94;;;0.24;93.22
61757;BME280;57225;61.460;24.060;2024-03-08T14:34:52;101179.91;;;0.17;92.47
61757;BME280;57225;61.460;24.060;2024-03-08T14:37:39;101162.28;;;-0.05;94.50